GFLL

Lungi International Airport

Freetown, Sierra Leone
METAR GFLL 212000Z 24006KT 8000 HZ NSC 28/23 Q1009
Observed Flight Rules
Jan-21 @ 20:00 UTC (31 minutes ago) Marginal Visual Flight Rules
Wind Visibility Clouds Conditions
240° at 6 knots 7,998 meters
  • Clear skies
  • Haze
Temperatures Readings
Current 28°C / 82°F
Dewpoint 23°C / 73°F
Humidity 74%
Altimeter 29.79" Hg
Pressure 1009 hPa
Elevation 27
METAR GFLL 212000Z 24006KT 8000 HZ NSC 28/23 Q1009
Observed Flight Rules
Jan-21 @ 20:00 UTC
(31 minutes ago)
MVFR
Wind Visibility
240° at 6 knots 7,998 meters
Clouds
  • Clear skies
Conditions
  • Haze
Temperature Dewpoint
28°C / 82°F 23°C / 73°F
Humidity Altimeter Pressure
74% 29.79" Hg 1009 hPa